Time,TemperatureF,DewpointF,PressureIn,WindDirection,WindDirectionDegrees,WindSpeedMPH,WindSpeedGustMPH,Humidity,HourlyPrecipIn,Conditions,Clouds,dailyrainin,SoftwareType,DateUTC
2013-06-25 00:04:00,72.0,71.0,29.85,NW,315,0.0,-999.0,96,-99.99,,,0.00,weatherlink.com 1.10,2013-06-25 04:04:00,
2013-06-25 00:19:00,71.7,71.0,29.85,WNW,300,0.0,-999.0,96,-99.99,,,0.00,weatherlink.com 1.10,2013-06-25 04:19:00,
2013-06-25 00:34:00,71.4,70.0,29.85,WNW,300,0.0,-999.0,95,-99.99,,,0.00,weatherlink.com 1.10,2013-06-25 04:34:00,
2013-06-25 00:49:00,71.2,70.0,29.85,WNW,300,0.0,-999.0,96,-99.99,,,0.00,weatherlink.com 1.10,2013-06-25 04:49:00,
2013-06-25 01:04:00,71.1,70.0,29.86,WNW,300,0.0,-999.0,96,-99.99,,,0.00,weatherlink.com 1.10,2013-06-25 05:04:00,
2013-06-25 01:19:00,70.9,70.0,29.86,WNW,300,0.0,-999.0,95,-99.99,,,0.00,weatherlink.com 1.10,2013-06-25 05:19:00,
2013-06-25 01:34:00,70.7,69.0,29.86,WNW,300,0.0,-999.0,95,-99.99,,,0.00,weatherlink.com 1.10,2013-06-25 05:34:00,
2013-06-25 01:49:00,70.5,69.0,29.86,WNW,300,0.0,-999.0,96,-99.99,,,0.00,weatherlink.com 1.10,2013-06-25 05:49:00,
2013-06-25 02:04:00,70.2,69.0,29.85,WNW,300,0.0,-999.0,96,-99.99,,,0.00,weatherlink.com 1.10,2013-06-25 06:04:00,
2013-06-25 02:19:00,70.1,69.0,29.85,WNW,300,0.0,-999.0,95,-99.99,,,0.00,weatherlink.com 1.10,2013-06-25 06:19:00,
2013-06-25 02:34:00,70.0,69.0,29.85,WNW,300,0.0,-999.0,95,-99.99,,,0.00,weatherlink.com 1.10,2013-06-25 06:34:00,
2013-06-25 02:49:00,69.9,69.0,29.84,WNW,302,2.0,-999.0,95,-99.99,,,0.00,weatherlink.com 1.10,2013-06-25 06:49:00,
2013-06-25 03:04:00,70.0,69.0,29.84,WSW,254,0.0,-999.0,95,-99.99,,,0.00,weatherlink.com 1.10,2013-06-25 07:04:00,
2013-06-25 03:19:00,69.9,69.0,29.83,West,259,0.0,-999.0,95,-99.99,,,0.00,weatherlink.com 1.10,2013-06-25 07:19:00,
2013-06-25 03:34:00,69.9,69.0,29.83,WSW,240,0.0,-999.0,95,-99.99,,,0.00,weatherlink.com 1.10,2013-06-25 07:34:00,
2013-06-25 03:49:00,69.9,69.0,29.84,WSW,240,0.0,-999.0,95,-99.99,,,0.00,weatherlink.com 1.10,2013-06-25 07:49:00,
2013-06-25 04:04:00,69.6,68.0,29.83,WSW,240,0.0,-999.0,95,-99.99,,,0.00,weatherlink.com 1.10,2013-06-25 08:04:00,
2013-06-25 04:19:00,69.4,68.0,29.84,WSW,240,0.0,-999.0,95,-99.99,,,0.00,weatherlink.com 1.10,2013-06-25 08:19:00,
2013-06-25 04:34:00,69.4,68.0,29.84,WSW,240,0.0,-999.0,96,-99.99,,,0.00,weatherlink.com 1.10,2013-06-25 08:34:00,
2013-06-25 04:49:00,69.2,68.0,29.84,WSW,240,0.0,-999.0,95,-99.99,,,0.00,weatherlink.com 1.10,2013-06-25 08:49:00,
2013-06-25 05:04:00,69.1,68.0,29.85,WSW,240,0.0,-999.0,96,-99.99,,,0.00,weatherlink.com 1.10,2013-06-25 09:04:00,
2013-06-25 05:19:00,69.0,68.0,29.84,WSW,240,0.0,-999.0,96,-99.99,,,0.00,weatherlink.com 1.10,2013-06-25 09:19:00,
2013-06-25 05:34:00,69.0,68.0,29.85,WSW,240,0.0,-999.0,96,-99.99,,,0.00,weatherlink.com 1.10,2013-06-25 09:34:00,
2013-06-25 05:49:00,69.0,68.0,29.85,WSW,240,0.0,-999.0,96,-99.99,,,0.00,weatherlink.com 1.10,2013-06-25 09:49:00,
2013-06-25 06:04:00,69.0,68.0,29.85,WSW,240,0.0,-999.0,96,-99.99,,,0.00,weatherlink.com 1.10,2013-06-25 10:04:00,
2013-06-25 06:19:00,69.3,68.0,29.84,WSW,240,0.0,-999.0,95,-99.99,,,0.00,weatherlink.com 1.10,2013-06-25 10:19:00,
2013-06-25 06:34:00,69.6,68.0,29.84,WSW,240,0.0,-999.0,95,-99.99,,,0.00,weatherlink.com 1.10,2013-06-25 10:34:00,
2013-06-25 06:49:00,70.1,69.0,29.84,WSW,240,0.0,-999.0,95,-99.99,,,0.00,weatherlink.com 1.10,2013-06-25 10:49:00,
2013-06-25 07:04:00,70.3,68.0,29.84,WSW,240,0.0,-999.0,93,-99.99,,,0.00,weatherlink.com 1.10,2013-06-25 11:04:00,
2013-06-25 07:19:00,70.7,69.0,29.84,WSW,240,0.0,-999.0,93,-99.99,,,0.00,weatherlink.com 1.10,2013-06-25 11:19:00,
2013-06-25 07:34:00,71.1,69.0,29.83,WSW,240,0.0,-999.0,92,-99.99,,,0.00,weatherlink.com 1.10,2013-06-25 11:34:00,
2013-06-25 07:49:00,71.7,69.0,29.83,WSW,240,0.0,-999.0,91,-99.99,,,0.00,weatherlink.com 1.10,2013-06-25 11:49:00,
2013-06-25 08:04:00,72.1,69.0,29.83,WSW,240,0.0,-999.0,90,-99.99,,,0.00,weatherlink.com 1.10,2013-06-25 12:04:00,
2013-06-25 08:19:00,72.8,70.0,29.83,WSW,240,0.0,-999.0,89,-99.99,,,0.00,weatherlink.com 1.10,2013-06-25 12:19:00,
2013-06-25 08:34:00,73.6,70.0,29.83,WSW,240,0.0,-999.0,87,-99.99,,,0.00,weatherlink.com 1.10,2013-06-25 12:34:00,
2013-06-25 08:49:00,75.3,70.0,29.83,West,267,0.0,-999.0,83,-99.99,,,0.00,weatherlink.com 1.10,2013-06-25 12:49:00,
2013-06-25 09:04:00,76.8,69.0,29.83,NW,316,0.0,-999.0,78,-99.99,,,0.00,weatherlink.com 1.10,2013-06-25 13:04:00,
2013-06-25 09:19:00,78.1,70.0,29.82,NNW,342,0.0,-999.0,75,-99.99,,,0.00,weatherlink.com 1.10,2013-06-25 13:19:00,
2013-06-25 09:34:00,79.0,70.0,29.82,NW,319,0.0,-999.0,73,-99.99,,,0.00,weatherlink.com 1.10,2013-06-25 13:34:00,
2013-06-25 09:49:00,80.1,70.0,29.81,NW,326,0.0,-999.0,72,-99.99,,,0.00,weatherlink.com 1.10,2013-06-25 13:49:00,
2013-06-25 10:04:00,80.9,70.0,29.81,WSW,246,0.0,-999.0,70,-99.99,,,0.00,weatherlink.com 1.10,2013-06-25 14:04:00,
2013-06-25 10:19:00,81.7,71.0,29.81,WSW,248,0.0,-999.0,69,-99.99,,,0.00,weatherlink.com 1.10,2013-06-25 14:19:00,
2013-06-25 10:34:00,82.5,70.0,29.82,SW,222,0.0,-999.0,67,-99.99,,,0.00,weatherlink.com 1.10,2013-06-25 14:34:00,
2013-06-25 10:49:00,83.6,72.0,29.82,NW,313,4.0,-999.0,68,-99.99,,,0.00,weatherlink.com 1.10,2013-06-25 14:49:00,
2013-06-25 11:04:00,84.7,71.0,29.82,SSW,205,1.0,-999.0,64,-99.99,,,0.00,weatherlink.com 1.10,2013-06-25 15:04:00,
2013-06-25 11:19:00,85.6,72.0,29.82,NW,326,0.0,-999.0,63,-99.99,,,0.00,weatherlink.com 1.10,2013-06-25 15:19:00,
2013-06-25 11:34:00,86.7,72.0,29.82,NW,319,3.0,-999.0,61,-99.99,,,0.00,weatherlink.com 1.10,2013-06-25 15:34:00,
2013-06-25 11:49:00,87.8,72.0,29.81,SW,221,0.0,-999.0,60,-99.99,,,0.00,weatherlink.com 1.10,2013-06-25 15:49:00,
2013-06-25 12:04:00,89.1,72.0,29.81,NE,54,1.0,-999.0,57,-99.99,,,0.00,weatherlink.com 1.10,2013-06-25 16:04:00,
2013-06-25 12:19:00,90.1,73.0,29.81,WSW,240,0.0,-999.0,57,-99.99,,,0.00,weatherlink.com 1.10,2013-06-25 16:19:00,
2013-06-25 12:34:00,90.6,72.0,29.80,West,273,4.0,-999.0,55,-99.99,,,0.00,weatherlink.com 1.10,2013-06-25 16:34:00,
2013-06-25 12:49:00,90.8,72.0,29.80,North,5,0.0,-999.0,55,-99.99,,,0.00,weatherlink.com 1.10,2013-06-25 16:49:00,
2013-06-25 13:04:00,91.2,73.0,29.80,WSW,245,0.0,-999.0,56,-99.99,,,0.00,weatherlink.com 1.10,2013-06-25 17:04:00,
2013-06-25 13:19:00,91.7,73.0,29.79,WNW,302,5.0,-999.0,54,-99.99,,,0.00,weatherlink.com 1.10,2013-06-25 17:19:00,
2013-06-25 13:34:00,92.0,72.0,29.78,North,355,1.0,-999.0,53,-99.99,,,0.00,weatherlink.com 1.10,2013-06-25 17:34:00,
2013-06-25 13:49:00,92.6,72.0,29.77,West,263,1.0,-999.0,51,-99.99,,,0.00,weatherlink.com 1.10,2013-06-25 17:49:00,
2013-06-25 14:04:00,93.5,73.0,29.77,West,266,1.0,-999.0,51,-99.99,,,0.00,weatherlink.com 1.10,2013-06-25 18:04:00,
2013-06-25 14:19:00,93.7,72.0,29.76,WNW,295,3.0,-999.0,49,-99.99,,,0.00,weatherlink.com 1.10,2013-06-25 18:19:00,
2013-06-25 14:34:00,93.0,73.0,29.75,North,360,2.0,-999.0,52,-99.99,,,0.00,weatherlink.com 1.10,2013-06-25 18:34:00,
2013-06-25 14:49:00,93.1,70.0,29.75,SE,144,1.0,-999.0,47,-99.99,,,0.00,weatherlink.com 1.10,2013-06-25 18:49:00,
2013-06-25 15:04:00,93.6,70.0,29.74,West,274,0.0,-999.0,46,-99.99,,,0.00,weatherlink.com 1.10,2013-06-25 19:04:00,
2013-06-25 15:19:00,94.3,70.0,29.73,SW,218,0.0,-999.0,45,-99.99,,,0.00,weatherlink.com 1.10,2013-06-25 19:19:00,
2013-06-25 15:34:00,93.7,70.0,29.73,West,263,0.0,-999.0,46,-99.99,,,0.00,weatherlink.com 1.10,2013-06-25 19:34:00,
2013-06-25 15:49:00,93.8,70.0,29.72,WNW,300,4.0,-999.0,46,-99.99,,,0.00,weatherlink.com 1.10,2013-06-25 19:49:00,
2013-06-25 16:04:00,94.0,69.0,29.71,NW,323,6.0,-999.0,44,-99.99,,,0.00,weatherlink.com 1.10,2013-06-25 20:04:00,
2013-06-25 16:19:00,93.6,71.0,29.70,North,360,0.0,-999.0,48,-99.99,,,0.00,weatherlink.com 1.10,2013-06-25 20:19:00,
2013-06-25 16:34:00,93.6,70.0,29.70,WSW,246,1.0,-999.0,46,-99.99,,,0.00,weatherlink.com 1.10,2013-06-25 20:34:00,
2013-06-25 16:49:00,92.9,70.0,29.70,South,173,1.0,-999.0,48,-99.99,,,0.00,weatherlink.com 1.10,2013-06-25 20:49:00,
2013-06-25 17:04:00,93.4,70.0,29.70,WNW,294,0.0,-999.0,47,-99.99,,,0.00,weatherlink.com 1.10,2013-06-25 21:04:00,
2013-06-25 17:19:00,93.2,70.0,29.70,WNW,284,5.0,-999.0,47,-99.99,,,0.00,weatherlink.com 1.10,2013-06-25 21:19:00,
2013-06-25 17:34:00,92.4,70.0,29.70,WNW,285,7.0,-999.0,48,-99.99,,,0.00,weatherlink.com 1.10,2013-06-25 21:34:00,
2013-06-25 17:49:00,91.9,72.0,29.70,NNW,336,0.0,-999.0,52,-99.99,,,0.00,weatherlink.com 1.10,2013-06-25 21:49:00,
2013-06-25 18:04:00,91.8,71.0,29.69,NW,313,0.0,-999.0,51,-99.99,,,0.00,weatherlink.com 1.10,2013-06-25 22:04:00,
2013-06-25 18:19:00,91.5,70.0,29.68,NW,311,0.0,-999.0,50,-99.99,,,0.00,weatherlink.com 1.10,2013-06-25 22:19:00,
2013-06-25 18:34:00,90.4,70.0,29.68,WNW,298,0.0,-999.0,52,-99.99,,,0.00,weatherlink.com 1.10,2013-06-25 22:34:00,
2013-06-25 18:49:00,89.4,71.0,29.68,NW,312,0.0,-999.0,54,-99.99,,,0.00,weatherlink.com 1.10,2013-06-25 22:49:00,
2013-06-25 19:04:00,88.6,71.0,29.68,NNW,333,0.0,-999.0,57,-99.99,,,0.00,weatherlink.com 1.10,2013-06-25 23:04:00,
2013-06-25 19:19:00,87.7,72.0,29.68,NNW,327,2.0,-999.0,59,-99.99,,,0.00,weatherlink.com 1.10,2013-06-25 23:19:00,
2013-06-25 19:34:00,87.2,72.0,29.67,NW,318,1.0,-999.0,60,-99.99,,,0.00,weatherlink.com 1.10,2013-06-25 23:34:00,
2013-06-25 19:49:00,86.6,72.0,29.67,WSW,247,0.0,-999.0,61,-99.99,,,0.00,weatherlink.com 1.10,2013-06-25 23:49:00,
2013-06-25 20:04:00,86.3,71.0,29.67,NNW,333,3.0,-999.0,61,-99.99,,,0.00,weatherlink.com 1.10,2013-06-26 00:04:00,
2013-06-25 20:19:00,85.7,71.0,29.67,WNW,290,0.0,-999.0,62,-99.99,,,0.00,weatherlink.com 1.10,2013-06-26 00:19:00,
2013-06-25 20:34:00,85.1,71.0,29.67,ESE,117,0.0,-999.0,63,-99.99,,,0.00,weatherlink.com 1.10,2013-06-26 00:34:00,
2013-06-25 20:49:00,84.7,71.0,29.67,NW,308,7.0,-999.0,64,-99.99,,,0.00,weatherlink.com 1.10,2013-06-26 00:49:00,
2013-06-25 21:04:00,83.9,70.0,29.68,WSW,250,0.0,-999.0,63,-99.99,,,0.00,weatherlink.com 1.10,2013-06-26 01:04:00,
2013-06-25 21:19:00,82.8,69.0,29.68,NW,306,0.0,-999.0,64,-99.99,,,0.00,weatherlink.com 1.10,2013-06-26 01:19:00,
2013-06-25 21:34:00,82.0,69.0,29.68,NW,304,0.0,-999.0,65,-99.99,,,0.00,weatherlink.com 1.10,2013-06-26 01:34:00,
2013-06-25 21:49:00,81.4,69.0,29.69,WSW,244,0.0,-999.0,66,-99.99,,,0.00,weatherlink.com 1.10,2013-06-26 01:49:00,
2013-06-25 22:04:00,80.8,69.0,29.69,WNW,289,0.0,-999.0,67,-99.99,,,0.00,weatherlink.com 1.10,2013-06-26 02:04:00,
2013-06-25 22:19:00,80.3,70.0,29.69,WNW,297,0.0,-999.0,70,-99.99,,,0.00,weatherlink.com 1.10,2013-06-26 02:19:00,
2013-06-25 22:34:00,79.7,72.0,29.69,WNW,296,0.0,-999.0,76,-99.99,,,0.00,weatherlink.com 1.10,2013-06-26 02:34:00,
2013-06-25 22:49:00,78.7,71.0,29.70,WNW,296,0.0,-999.0,78,-99.99,,,0.00,weatherlink.com 1.10,2013-06-26 02:49:00,
2013-06-25 23:04:00,77.8,71.0,29.70,WNW,296,0.0,-999.0,80,-99.99,,,0.00,weatherlink.com 1.10,2013-06-26 03:04:00,
2013-06-25 23:19:00,77.3,71.0,29.70,WNW,296,0.0,-999.0,82,-99.99,,,0.00,weatherlink.com 1.10,2013-06-26 03:19:00,
2013-06-25 23:34:00,76.8,71.0,29.70,NNW,334,0.0,-999.0,83,-99.99,,,0.00,weatherlink.com 1.10,2013-06-26 03:34:00,
2013-06-25 23:49:00,76.5,71.0,29.70,NNW,334,0.0,-999.0,84,-99.99,,,0.00,weatherlink.com 1.10,2013-06-26 03:49:00,